Time;durP1;ratioP1;P1;durP2;ratioP2;P2;SDS_P1;SDS_P2;PMS_P1;PMS_P2;Temp;Humidity;BMP_temperature;BMP_pressure;BME280_temperature;BME280_humidity;BME280_pressure;Samples;Min_cycle;Max_cycle;Signal;HPM_P1;HPM_P2
2023/06/28 00:01:30;;;;;;;6.30;3.17;;;18.10;16.10;;;;;;5055535;28;20169;-62
2023/06/28 00:03:56;;;;;;;9.17;3.07;;;18.10;20.20;;;;;;5055660;28;20170;-63
2023/06/28 00:06:22;;;;;;;6.80;3.30;;;18.10;21.40;;;;;;5055234;28;20169;-63
2023/06/28 00:08:47;;;;;;;6.13;3.10;;;18.10;34.40;;;;;;5055370;28;20173;-63
2023/06/28 00:11:13;;;;;;;6.22;3.00;;;18.20;33.60;;;;;;5055317;28;20169;-62
2023/06/28 00:13:39;;;;;;;4.15;2.70;;;18.20;25.20;;;;;;5055349;28;20165;-63
2023/06/28 00:16:04;;;;;;;7.63;2.75;;;18.10;15.20;;;;;;5055250;28;20217;-64
2023/06/28 00:18:30;;;;;;;5.30;3.07;;;18.10;14.50;;;;;;5055321;28;20169;-63
2023/06/28 00:20:56;;;;;;;3.93;2.73;;;18.20;12.50;;;;;;5054876;28;20173;-64
2023/06/28 00:23:22;;;;;;;6.43;3.03;;;18.20;22.70;;;;;;5055456;28;20315;-64
2023/06/28 00:25:48;;;;;;;4.43;2.42;;;18.10;18.50;;;;;;5055201;28;20233;-63
2023/06/28 00:28:14;;;;;;;4.00;2.60;;;18.00;17.30;;;;;;5055122;28;20729;-63
2023/06/28 00:30:40;;;;;;;5.90;2.90;;;18.00;15.40;;;;;;5054947;28;20219;-63
2023/06/28 00:33:05;;;;;;;5.30;3.20;;;18.00;28.10;;;;;;5055070;28;20248;-63
2023/06/28 00:35:31;;;;;;;6.60;3.00;;;18.00;29.50;;;;;;5054686;28;20656;-64
2023/06/28 00:37:56;;;;;;;7.63;2.40;;;18.00;33.30;;;;;;5027152;28;20222;-63
2023/06/28 00:40:22;;;;;;;3.97;2.93;;;18.00;23.80;;;;;;5015102;28;20654;-64
2023/06/28 00:42:47;;;;;;;4.82;2.70;;;18.00;34.60;;;;;;5015356;28;20262;-64
2023/06/28 00:45:14;;;;;;;3.63;2.30;;;18.00;35.00;;;;;;5015076;28;20170;-62
2023/06/28 00:47:41;;;;;;;5.33;2.80;;;17.90;20.80;;;;;;5014989;28;20229;-62
2023/06/28 00:50:08;;;;;;;5.97;2.60;;;17.80;26.00;;;;;;5014729;28;20178;-63
2023/06/28 00:52:33;;;;;;;3.80;2.27;;;17.80;33.50;;;;;;5014862;28;20174;-63
2023/06/28 00:55:00;;;;;;;3.23;2.23;;;17.80;20.70;;;;;;5014771;28;20680;-62
2023/06/28 00:57:26;;;;;;;4.67;2.17;;;17.80;22.10;;;;;;5014937;28;20237;-63
2023/06/28 00:59:53;;;;;;;5.07;2.33;;;17.70;21.10;;;;;;5014897;28;20163;-62
2023/06/28 01:02:19;;;;;;;5.03;2.30;;;17.70;23.10;;;;;;5014648;28;20171;-63
2023/06/28 01:04:44;;;;;;;5.83;2.73;;;17.70;29.20;;;;;;5014301;28;20244;-63
2023/06/28 01:07:11;;;;;;;3.80;2.40;;;17.70;37.30;;;;;;5014558;28;20175;-63
2023/06/28 01:09:38;;;;;;;4.27;2.33;;;17.70;35.70;;;;;;5014343;28;20228;-62
2023/06/28 01:12:04;;;;;;;5.80;2.30;;;17.60;34.50;;;;;;5014336;28;20175;-62
2023/06/28 01:14:30;;;;;;;5.83;2.40;;;17.60;31.40;;;;;;5014267;28;20198;-62
2023/06/28 01:16:56;;;;;;;6.67;2.50;;;17.60;35.40;;;;;;5014271;28;20713;-63
2023/06/28 01:19:24;;;;;;;4.63;2.70;;;17.60;37.50;;;;;;5014075;28;20249;-63
2023/06/28 01:21:53;;;;;;;4.90;2.47;;;17.60;38.90;;;;;;5014180;28;20197;-62
2023/06/28 01:24:21;;;;;;;5.63;2.30;;;17.60;36.30;;;;;;5014159;28;20218;-63
2023/06/28 01:26:51;;;;;;;6.10;2.43;;;17.60;32.80;;;;;;5014378;28;20186;-62
2023/06/28 01:29:24;;;;;;;4.00;2.47;;;17.60;41.40;;;;;;5014442;28;20257;-65
2023/06/28 01:31:55;;;;;;;2.70;2.33;;;17.60;30.00;;;;;;5014235;28;20217;-64
2023/06/28 01:34:30;;;;;;;3.93;2.07;;;17.60;32.50;;;;;;5013239;28;20174;-63
2023/06/28 01:37:00;;;;;;;3.63;2.70;;;17.60;34.70;;;;;;5014321;28;20173;-63
2023/06/28 01:39:27;;;;;;;3.40;2.27;;;17.50;35.90;;;;;;5051107;28;20243;-63
2023/06/28 01:41:54;;;;;;;3.83;2.30;;;17.60;28.80;;;;;;5053681;28;20169;-63
2023/06/28 01:44:20;;;;;;;4.43;2.43;;;17.50;29.50;;;;;;5053514;28;20169;-63
2023/06/28 01:46:46;;;;;;;7.43;2.60;;;17.60;29.90;;;;;;5053561;28;20620;-64
2023/06/28 01:49:12;;;;;;;6.40;2.60;;;17.60;28.20;;;;;;5053167;28;20181;-63
2023/06/28 01:51:39;;;;;;;4.50;2.47;;;17.60;29.40;;;;;;5053491;28;20567;-63
2023/06/28 01:54:05;;;;;;;4.23;2.43;;;17.60;23.60;;;;;;5053432;28;20169;-64
2023/06/28 01:56:31;;;;;;;6.43;3.00;;;17.60;22.80;;;;;;5053205;28;20223;-63
2023/06/28 01:58:57;;;;;;;3.63;2.17;;;17.70;20.40;;;;;;5053273;28;20169;-63
2023/06/28 02:01:22;;;;;;;5.63;2.67;;;17.60;22.50;;;;;;5035494;28;20204;-63
2023/06/28 02:03:48;;;;;;;5.30;2.27;;;17.60;22.00;;;;;;5052803;28;20231;-63
2023/06/28 02:06:14;;;;;;;6.73;2.53;;;17.70;24.70;;;;;;5053450;28;20218;-63
2023/06/28 02:08:40;;;;;;;4.90;2.87;;;17.60;21.70;;;;;;5053271;28;20165;-63
2023/06/28 02:11:06;;;;;;;4.27;2.57;;;17.60;23.10;;;;;;5053188;28;20162;-63
2023/06/28 02:13:31;;;;;;;8.87;3.07;;;17.60;25.60;;;;;;5053142;28;20648;-63
2023/06/28 02:15:57;;;;;;;6.23;2.40;;;17.70;21.00;;;;;;5053011;28;20209;-63
2023/06/28 02:18:25;;;;;;;5.07;2.90;;;17.70;18.90;;;;;;5052793;28;20212;-63
2023/06/28 02:20:54;;;;;;;4.00;2.23;;;17.60;16.00;;;;;;5035285;28;20283;-62
2023/06/28 02:23:20;;;;;;;6.63;3.17;;;17.60;19.80;;;;;;5053047;28;20188;-63
2023/06/28 02:25:45;;;;;;;7.37;2.50;;;17.80;19.90;;;;;;5053229;28;20173;-63
2023/06/28 02:28:11;;;;;;;4.97;2.40;;;17.90;14.50;;;;;;5052996;28;20179;-64
2023/06/28 02:30:37;;;;;;;2.80;2.03;;;17.90;9.30;;;;;;5052869;28;20177;-63
2023/06/28 02:33:03;;;;;;;3.70;2.47;;;18.00;1.00;;;;;;5052517;28;20182;-63
2023/06/28 02:35:28;;;;;;;5.63;2.40;;;17.90;1.00;;;;;;5052794;28;20213;-63
2023/06/28 02:37:54;;;;;;;4.30;2.17;;;17.90;1.00;;;;;;5052758;28;20251;-62
2023/06/28 02:40:20;;;;;;;4.60;2.33;;;17.80;1.00;;;;;;5052751;28;20180;-62
2023/06/28 02:42:46;;;;;;;5.60;2.40;;;17.80;3.10;;;;;;5052790;28;20709;-62
2023/06/28 02:45:11;;;;;;;3.60;1.90;;;17.90;1.20;;;;;;5054042;28;20201;-62
2023/06/28 02:47:38;;;;;;;6.60;2.40;;;17.90;1.00;;;;;;5056639;28;20224;-62
2023/06/28 02:50:05;;;;;;;5.13;2.43;;;17.90;1.00;;;;;;5056812;28;20239;-62
2023/06/28 02:52:32;;;;;;;5.33;2.40;;;18.00;1.00;;;;;;5056814;28;20204;-62
2023/06/28 02:54:58;;;;;;;5.23;2.10;;;18.00;1.00;;;;;;5056844;28;20193;-62
2023/06/28 02:57:24;;;;;;;5.03;2.27;;;18.10;1.00;;;;;;5056738;28;20177;-62
2023/06/28 02:59:50;;;;;;;3.13;2.07;;;18.00;1.00;;;;;;5056762;28;20165;-64
2023/06/28 03:02:16;;;;;;;4.63;2.07;;;18.10;1.00;;;;;;5056169;28;20200;-62
2023/06/28 03:04:41;;;;;;;5.67;2.17;;;18.00;1.00;;;;;;5056412;28;20185;-62
2023/06/28 03:07:13;;;;;;;4.73;2.30;;;18.00;1.00;;;;;;5056420;28;20166;-62
2023/06/28 03:09:38;;;;;;;3.17;2.00;;;18.00;1.00;;;;;;5056828;28;20161;-62
2023/06/28 03:12:04;;;;;;;4.10;2.20;;;17.90;1.00;;;;;;5056469;28;20173;-63
2023/06/28 03:14:30;;;;;;;3.73;2.17;;;17.90;1.00;;;;;;5056287;28;20612;-63
2023/06/28 03:16:55;;;;;;;3.77;2.30;;;17.90;1.00;;;;;;5055937;28;20177;-62
2023/06/28 03:19:21;;;;;;;3.60;1.97;;;17.90;1.00;;;;;;5056209;28;20252;-62
2023/06/28 03:21:46;;;;;;;4.90;2.30;;;17.90;1.00;;;;;;5056190;28;20621;-63
2023/06/28 03:24:12;;;;;;;4.20;2.17;;;17.90;1.00;;;;;;5056276;28;20280;-63
2023/06/28 03:26:38;;;;;;;3.20;2.60;;;17.90;1.00;;;;;;5055930;28;20528;-63
2023/06/28 03:29:03;;;;;;;3.07;2.13;;;17.90;1.00;;;;;;5055864;28;20173;-63
2023/06/28 03:31:31;;;;;;;5.20;2.20;;;17.90;1.00;;;;;;5055548;28;20215;-61
2023/06/28 03:33:57;;;;;;;4.70;2.40;;;18.00;1.00;;;;;;5055817;28;20218;-63
2023/06/28 03:36:24;;;;;;;5.40;2.47;;;18.00;1.00;;;;;;5055330;28;20622;-62
2023/06/28 03:38:49;;;;;;;4.67;2.30;;;18.00;1.00;;;;;;5055615;28;20304;-63
2023/06/28 03:41:15;;;;;;;5.05;2.47;;;18.10;1.00;;;;;;5055759;28;20536;-62
2023/06/28 03:43:40;;;;;;;4.63;2.40;;;18.20;1.00;;;;;;5055326;28;20177;-62
2023/06/28 03:46:06;;;;;;;5.00;2.30;;;18.30;1.00;;;;;;5055348;28;20180;-62
2023/06/28 03:48:32;;;;;;;7.73;2.77;;;18.30;1.00;;;;;;5055721;28;20564;-62
2023/06/28 03:50:57;;;;;;;5.70;2.40;;;18.20;1.00;;;;;;5055386;28;20216;-62
2023/06/28 03:53:23;;;;;;;5.30;2.78;;;18.20;1.00;;;;;;5055373;28;20225;-63
2023/06/28 03:55:48;;;;;;;6.65;2.40;;;18.20;1.00;;;;;;5054798;28;20629;-63
2023/06/28 03:58:14;;;;;;;4.28;2.45;;;18.20;1.00;;;;;;5055134;28;20283;-63
2023/06/28 04:00:41;;;;;;;3.97;2.77;;;18.20;3.00;;;;;;5055049;28;20655;-62
2023/06/28 04:03:07;;;;;;;5.80;2.80;;;18.20;1.00;;;;;;5055158;28;20199;-63
2023/06/28 04:05:33;;;;;;;7.38;2.72;;;18.30;1.00;;;;;;5054769;28;20157;-64
2023/06/28 04:07:58;;;;;;;4.18;2.90;;;18.40;1.00;;;;;;5055307;28;20170;-62
2023/06/28 04:10:25;;;;;;;3.67;2.67;;;18.40;1.00;;;;;;5054859;28;20169;-62
2023/06/28 04:12:51;;;;;;;7.30;2.80;;;18.40;3.20;;;;;;5054591;28;20184;-64
2023/06/28 04:15:16;;;;;;;5.70;2.70;;;18.40;5.60;;;;;;5054855;28;20546;-63
2023/06/28 04:17:42;;;;;;;5.18;2.95;;;18.40;7.40;;;;;;5054564;28;20172;-63
2023/06/28 04:20:08;;;;;;;4.72;2.85;;;18.30;10.50;;;;;;5054780;28;20169;-64
2023/06/28 04:22:34;;;;;;;7.60;3.20;;;18.30;12.90;;;;;;5054439;28;20170;-62
2023/06/28 04:24:59;;;;;;;6.55;2.85;;;18.30;13.40;;;;;;5054818;28;20185;-63
2023/06/28 04:27:25;;;;;;;7.03;3.47;;;18.40;13.60;;;;;;5054571;28;20292;-64
2023/06/28 04:29:51;;;;;;;7.20;3.13;;;18.50;12.10;;;;;;5054151;28;20184;-64
2023/06/28 04:32:25;;;;;;;5.60;3.10;;;18.50;11.30;;;;;;5054520;28;20640;-63
2023/06/28 04:34:53;;;;;;;4.90;2.97;;;18.60;13.80;;;;;;5054709;28;20189;-63
2023/06/28 04:37:20;;;;;;;7.85;3.63;;;18.60;12.20;;;;;;5054429;28;20216;-63
2023/06/28 04:39:46;;;;;;;8.48;3.30;;;18.50;16.20;;;;;;5054647;28;20709;-63
2023/06/28 04:42:14;;;;;;;5.03;3.30;;;18.40;19.00;;;;;;5054331;28;20238;-63
2023/06/28 04:44:49;;;;;;;10.77;3.35;;;18.50;18.70;;;;;;5053973;28;20532;-63
2023/06/28 04:47:16;;;;;;;7.53;3.77;;;18.50;18.80;;;;;;5054115;28;20169;-63
2023/06/28 04:49:49;;;;;;;5.32;3.33;;;18.50;20.60;;;;;;5054444;28;20277;-64
2023/06/28 04:52:19;;;;;;;8.15;3.53;;;18.40;20.80;;;;;;5053724;28;20169;-63
2023/06/28 04:54:49;;;;;;;8.73;3.20;;;18.40;21.50;;;;;;5053523;28;20270;-64
2023/06/28 04:57:15;;;;;;;7.78;3.67;;;18.50;22.50;;;;;;5053684;28;20176;-63
2023/06/28 04:59:41;;;;;;;8.00;3.45;;;18.60;20.90;;;;;;5053660;28;20226;-63
2023/06/28 05:02:07;;;;;;;10.48;3.70;;;18.60;19.70;;;;;;5053984;28;20248;-63
2023/06/28 05:04:33;;;;;;;10.00;3.00;;;18.80;16.80;;;;;;5053762;28;20303;-63
2023/06/28 05:07:04;;;;;;;9.93;3.63;;;18.80;16.50;;;;;;5053687;28;20252;-64
2023/06/28 05:09:34;;;;;;;7.95;3.35;;;18.70;15.20;;;;;;5053041;28;20169;-63
2023/06/28 05:12:01;;;;;;;7.18;3.47;;;18.60;18.30;;;;;;5052484;28;20173;-64
2023/06/28 05:14:29;;;;;;;8.65;3.15;;;18.60;19.70;;;;;;5053772;28;20165;-63
2023/06/28 05:16:54;;;;;;;7.45;3.53;;;18.70;19.90;;;;;;5053185;28;20243;-64
2023/06/28 05:19:22;;;;;;;9.20;3.83;;;18.70;18.80;;;;;;5053225;28;20620;-63
2023/06/28 05:21:47;;;;;;;9.43;3.40;;;18.70;18.70;;;;;;5053741;28;20173;-64
2023/06/28 05:24:15;;;;;;;12.63;3.53;;;18.60;19.30;;;;;;5053317;28;20200;-64
2023/06/28 05:26:41;;;;;;;8.43;3.78;;;18.60;19.60;;;;;;5053050;28;20173;-63
2023/06/28 05:29:07;;;;;;;9.88;3.72;;;18.70;19.60;;;;;;5053220;28;20222;-65
2023/06/28 05:31:32;;;;;;;5.40;3.65;;;18.80;18.40;;;;;;5052767;28;20204;-63
2023/06/28 05:33:58;;;;;;;7.38;3.70;;;18.80;17.00;;;;;;5053107;28;20166;-65
2023/06/28 05:36:23;;;;;;;8.40;3.63;;;18.80;17.50;;;;;;5052759;28;20605;-64
2023/06/28 05:38:49;;;;;;;6.97;4.05;;;18.80;19.00;;;;;;5052906;28;20220;-64
2023/06/28 05:41:16;;;;;;;8.10;3.53;;;18.80;18.60;;;;;;5052473;28;20172;-64
2023/06/28 05:43:44;;;;;;;8.68;3.55;;;18.80;22.60;;;;;;5053032;28;20171;-63
2023/06/28 05:46:10;;;;;;;11.95;4.03;;;18.80;22.50;;;;;;5052843;28;20262;-64
2023/06/28 05:48:35;;;;;;;8.48;3.40;;;19.00;19.20;;;;;;5059109;28;20211;-66
2023/06/28 05:51:01;;;;;;;9.73;3.65;;;19.00;16.30;;;;;;5072771;28;20172;-65
2023/06/28 05:53:27;;;;;;;9.45;4.03;;;18.80;20.90;;;;;;5071362;28;20168;-66
2023/06/28 05:55:52;;;;;;;11.57;3.97;;;18.90;21.30;;;;;;5067668;28;20217;-65
2023/06/28 05:58:18;;;;;;;5.72;3.60;;;18.90;21.70;;;;;;5068961;28;20180;-65
2023/06/28 06:00:44;;;;;;;8.57;3.95;;;19.00;20.20;;;;;;5071320;28;20181;-65
2023/06/28 06:03:10;;;;;;;7.35;3.83;;;19.00;19.90;;;;;;5062878;28;20189;-66
2023/06/28 06:05:37;;;;;;;7.70;4.20;;;19.10;15.90;;;;;;5066653;28;20254;-65
2023/06/28 06:08:03;;;;;;;11.45;4.28;;;19.20;15.40;;;;;;5051831;28;20702;-66
2023/06/28 06:10:30;;;;;;;8.75;4.00;;;19.30;13.90;;;;;;5069630;28;20192;-66
2023/06/28 06:12:55;;;;;;;9.45;4.30;;;19.40;12.60;;;;;;5069943;28;20259;-64
2023/06/28 06:15:21;;;;;;;9.02;4.10;;;19.40;11.20;;;;;;5066340;28;20208;-65
2023/06/28 06:17:46;;;;;;;10.18;4.57;;;19.50;9.30;;;;;;5060730;28;20512;-64
2023/06/28 06:20:15;;;;;;;7.28;4.15;;;19.70;7.80;;;;;;5067022;28;20180;-66
2023/06/28 06:22:44;;;;;;;9.48;4.22;;;19.80;7.70;;;;;;5065772;28;20189;-65
2023/06/28 06:25:10;;;;;;;9.00;5.00;;;19.90;1.80;;;;;;5069379;28;20269;-66
2023/06/28 06:27:36;;;;;;;8.57;4.82;;;19.90;4.80;;;;;;5067949;28;20589;-64
2023/06/28 06:30:03;;;;;;;7.30;4.82;;;19.90;3.50;;;;;;5069389;28;20184;-65
2023/06/28 06:32:28;;;;;;;9.82;4.90;;;19.90;4.50;;;;;;5069643;28;20176;-65
2023/06/28 06:34:57;;;;;;;10.43;5.00;;;19.80;6.00;;;;;;5067090;28;20651;-64
2023/06/28 06:37:26;;;;;;;10.38;5.00;;;19.80;7.10;;;;;;5060976;28;20509;-67
2023/06/28 06:39:53;;;;;;;13.48;5.28;;;19.80;8.50;;;;;;5060157;28;20253;-67
2023/06/28 06:42:19;;;;;;;13.32;5.78;;;19.90;8.80;;;;;;5058897;28;20185;-65
2023/06/28 06:44:45;;;;;;;10.65;5.28;;;20.00;1.50;;;;;;5071349;28;20177;-67
2023/06/28 06:47:10;;;;;;;12.43;5.95;;;20.00;7.00;;;;;;5058412;28;20185;-67
2023/06/28 06:49:36;;;;;;;11.25;5.60;;;20.10;5.50;;;;;;5077702;28;20179;-64
2023/06/28 06:52:02;;;;;;;10.52;6.15;;;20.30;3.30;;;;;;5072726;28;20188;-65
2023/06/28 06:54:31;;;;;;;9.60;5.38;;;20.40;1.00;;;;;;5068961;28;20181;-65
2023/06/28 06:56:58;;;;;;;14.60;6.63;;;20.10;4.10;;;;;;5069543;28;20636;-65
2023/06/28 06:59:24;;;;;;;11.18;6.40;;;20.00;9.40;;;;;;5070425;28;20214;-65
2023/06/28 07:01:51;;;;;;;10.30;6.47;;;20.00;11.20;;;;;;5061107;28;20184;-64
2023/06/28 07:04:17;;;;;;;13.52;6.38;;;20.30;7.00;;;;;;5065115;28;20176;-64
2023/06/28 07:06:44;;;;;;;13.57;6.32;;;20.50;2.30;;;;;;5070624;28;20171;-65
2023/06/28 07:09:10;;;;;;;13.65;5.90;;;20.60;1.00;;;;;;5070859;28;20193;-65
2023/06/28 07:11:36;;;;;;;12.05;5.43;;;20.60;1.00;;;;;;5057408;28;20223;-67
2023/06/28 07:14:02;;;;;;;13.60;5.78;;;20.50;1.00;;;;;;5067041;28;20184;-66
2023/06/28 07:16:27;;;;;;;13.70;5.80;;;20.30;3.20;;;;;;5057299;28;20207;-65
2023/06/28 07:18:54;;;;;;;15.13;5.63;;;20.40;3.30;;;;;;5067067;28;20647;-65
2023/06/28 07:21:20;;;;;;;9.98;4.75;;;20.60;1.00;;;;;;5069992;28;20242;-67
2023/06/28 07:23:46;;;;;;;10.55;5.20;;;20.70;1.00;;;;;;5069551;28;20292;-66
2023/06/28 07:26:14;;;;;;;13.07;5.00;;;20.70;1.00;;;;;;5065066;28;20275;-65
2023/06/28 07:28:40;;;;;;;10.35;4.90;;;20.90;1.00;;;;;;5056401;28;20188;-66
2023/06/28 07:31:05;;;;;;;7.22;4.90;;;20.90;1.00;;;;;;5066061;28;20187;-66
2023/06/28 07:33:31;;;;;;;10.02;4.88;;;21.20;1.00;;;;;;5067025;28;20184;-66
2023/06/28 07:35:57;;;;;;;7.55;4.45;;;21.40;1.00;;;;;;5067582;28;20212;-66
2023/06/28 07:38:22;;;;;;;10.70;5.30;;;21.50;1.00;;;;;;5070984;28;20319;-67
2023/06/28 07:40:49;;;;;;;11.77;5.03;;;21.20;1.00;;;;;;5078099;28;20635;-67
2023/06/28 07:43:16;;;;;;;14.18;5.32;;;21.00;1.00;;;;;;5074003;28;20689;-66
2023/06/28 07:45:42;;;;;;;8.68;5.30;;;20.90;1.00;;;;;;5055034;28;20541;-66
2023/06/28 07:48:08;;;;;;;12.88;5.10;;;21.00;1.00;;;;;;5066705;28;20188;-67
2023/06/28 07:50:35;;;;;;;11.90;4.60;;;21.20;1.00;;;;;;5076437;28;20237;-65
2023/06/28 07:53:00;;;;;;;9.25;5.18;;;21.60;1.00;;;;;;5073330;28;20227;-65
2023/06/28 07:55:28;;;;;;;10.40;4.93;;;22.00;1.00;;;;;;5064831;28;20322;-66
2023/06/28 07:57:54;;;;;;;11.82;5.25;;;22.00;1.00;;;;;;5067987;28;20169;-64
2023/06/28 08:00:20;;;;;;;7.85;4.72;;;22.10;1.00;;;;;;5067297;28;20185;-66
2023/06/28 08:02:46;;;;;;;10.18;5.10;;;22.30;1.00;;;;;;5071902;28;20611;-67
2023/06/28 08:05:11;;;;;;;10.60;5.30;;;22.40;1.00;;;;;;5072399;28;20199;-68
2023/06/28 08:07:37;;;;;;;11.57;5.00;;;22.60;1.00;;;;;;5066986;28;20655;-69
2023/06/28 08:10:03;;;;;;;11.70;5.00;;;23.10;1.00;;;;;;5071002;28;20173;-68
2023/06/28 08:12:28;;;;;;;8.23;4.85;;;23.10;1.00;;;;;;5073613;28;20206;-68
2023/06/28 08:14:54;;;;;;;15.85;5.13;;;23.90;1.00;;;;;;5073401;28;20223;-69
2023/06/28 08:17:20;;;;;;;8.90;5.05;;;24.60;1.00;;;;;;5060024;28;20192;-69
2023/06/28 08:19:46;;;;;;;7.97;4.97;;;25.70;1.00;;;;;;5054814;28;20169;-69
2023/06/28 08:22:12;;;;;;;11.55;4.47;;;26.50;99.90;;;;;;5054569;28;20529;-70
2023/06/28 08:24:38;;;;;;;12.95;5.18;;;27.50;1.00;;;;;;5054273;28;20185;-69
2023/06/28 08:27:05;;;;;;;6.50;4.45;;;28.70;1.00;;;;;;5052167;28;20176;-69
2023/06/28 08:29:30;;;;;;;10.07;4.93;;;29.90;1.00;;;;;;5054517;28;20173;-69
2023/06/28 08:31:56;;;;;;;9.32;4.82;;;29.80;1.00;;;;;;5052107;28;20647;-70
2023/06/28 08:34:21;;;;;;;10.57;4.85;;;31.10;1.00;;;;;;5052204;28;20219;-67
2023/06/28 08:36:47;;;;;;;10.25;4.53;;;32.30;1.00;;;;;;5053452;28;20205;-69
2023/06/28 08:39:13;;;;;;;8.52;5.05;;;31.70;1.00;;;;;;5053712;28;20672;-70
2023/06/28 08:41:40;;;;;;;11.90;5.28;;;30.10;99.90;;;;;;5067940;28;20189;-70
2023/06/28 08:44:09;;;;;;;7.18;4.72;;;30.00;51.50;;;;;;5052951;28;20173;-70
2023/06/28 08:46:35;;;;;;;9.65;5.05;;;30.10;1.00;;;;;;5053775;28;20173;-70
2023/06/28 08:49:01;;;;;;;9.60;5.28;;;30.20;99.90;;;;;;5053847;28;20182;-69
2023/06/28 08:51:27;;;;;;;10.75;5.35;;;29.40;99.90;;;;;;5067004;28;20212;-71
2023/06/28 08:53:54;;;;;;;8.93;5.03;;;29.50;1.00;;;;;;5074145;28;20204;-69
2023/06/28 08:56:20;;;;;;;10.27;5.40;;;29.20;1.00;;;;;;5074150;28;20311;-70
2023/06/28 08:58:50;;;;;;;11.38;5.50;;;29.10;1.00;;;;;;5073826;28;20259;-70
2023/06/28 09:01:15;;;;;;;10.05;5.15;;;28.30;1.00;;;;;;5062160;28;20652;-70
2023/06/28 09:03:43;;;;;;;16.67;5.72;;;28.20;99.90;;;;;;5053463;28;20173;-71
2023/06/28 09:06:09;;;;;;;10.30;5.90;;;28.20;1.00;;;;;;5054738;28;20192;-70
2023/06/28 09:08:35;;;;;;;9.85;6.28;;;28.60;99.90;;;;;;5053526;28;20165;-69
2023/06/28 09:11:02;;;;;;;10.52;6.10;;;28.10;1.00;;;;;;5053946;28;20185;-70
2023/06/28 09:13:28;;;;;;;12.82;6.07;;;27.40;99.90;;;;;;5066130;28;20245;-69
2023/06/28 09:15:55;;;;;;;14.43;6.70;;;27.30;99.90;;;;;;5074131;28;20342;-68
2023/06/28 09:18:21;;;;;;;12.13;6.53;;;27.50;99.90;;;;;;5073333;28;20703;-69
2023/06/28 09:20:54;;;;;;;12.25;6.50;;;28.30;99.90;;;;;;5072055;28;20272;-69
2023/06/28 09:23:24;;;;;;;12.25;6.50;;;28.40;1.00;;;;;;5072991;28;20229;-70
2023/06/28 09:25:50;;;;;;;12.43;6.60;;;27.80;99.90;;;;;;5073452;28;20173;-69
2023/06/28 09:28:17;;;;;;;12.20;6.70;;;27.80;99.90;;;;;;5073133;28;20233;-69
2023/06/28 09:30:42;;;;;;;12.40;6.32;;;28.00;1.00;;;;;;5072382;28;20168;-69
2023/06/28 09:33:08;;;;;;;11.73;6.57;;;27.50;99.90;;;;;;5071336;28;20180;-69
2023/06/28 09:35:39;;;;;;;13.68;7.50;;;27.40;1.00;;;;;;5072164;28;20257;-69
2023/06/28 09:38:08;;;;;;;15.38;7.70;;;27.40;1.00;;;;;;5071870;28;20243;-68
2023/06/28 09:40:34;;;;;;;7.68;6.78;;;27.10;1.00;;;;;;5072741;28;20176;-67
2023/06/28 09:43:00;;;;;;;9.70;7.03;;;27.40;1.00;;;;;;5063208;28;20180;-68
2023/06/28 09:45:28;;;;;;;9.18;6.35;;;27.80;99.90;;;;;;5061425;28;20181;-69
2023/06/28 09:47:58;;;;;;;9.77;7.05;;;28.80;99.90;;;;;;5068705;28;20202;-69
2023/06/28 09:50:45;;;;;;;10.60;6.28;;;28.20;1.00;;;;;;5063717;28;20192;-70
2023/06/28 09:53:13;;;;;;;11.00;6.70;;;27.80;17.30;;;;;;5068933;28;20183;-69
2023/06/28 09:55:46;;;;;;;13.90;6.30;;;28.30;1.00;;;;;;5068713;28;20206;-70
2023/06/28 09:58:17;;;;;;;7.78;6.97;;;29.60;1.00;;;;;;5064538;28;20177;-70
2023/06/28 10:00:45;;;;;;;9.15;6.55;;;30.90;99.90;;;;;;5061418;28;20204;-70
2023/06/28 10:03:12;;;;;;;10.55;6.93;;;30.80;1.00;;;;;;5085028;28;20172;-70
2023/06/28 10:05:39;;;;;;;9.68;7.03;;;29.90;1.00;;;;;;5071085;28;20203;-69
2023/06/28 10:08:11;;;;;;;10.07;7.32;;;30.30;99.90;;;;;;5051995;28;20276;-70
2023/06/28 10:10:38;;;;;;;8.05;6.72;;;31.00;1.00;;;;;;5066189;28;20636;-69
2023/06/28 10:13:06;;;;;;;10.77;7.40;;;30.80;99.90;;;;;;5071181;28;20265;-70
2023/06/28 10:16:02;;;;;;;12.10;8.02;;;31.20;99.90;;;;;;5070362;28;20208;-69
2023/06/28 10:18:28;;;;;;;11.52;7.25;;;30.70;99.90;;;;;;5033818;28;20561;-70
2023/06/28 10:20:54;;;;;;;11.73;6.93;;;30.50;99.90;;;;;;5066685;28;20529;-70
2023/06/28 10:23:20;;;;;;;9.48;7.40;;;31.50;1.00;;;;;;5070748;28;20279;-71
2023/06/28 10:25:46;;;;;;;11.07;7.88;;;32.30;1.00;;;;;;5071306;28;20185;-70
2023/06/28 10:28:15;;;;;;;8.93;7.75;;;31.40;1.00;;;;;;5070707;28;20253;-69
2023/06/28 10:30:42;;;;;;;12.57;8.07;;;30.70;1.00;;;;;;5064536;28;20165;-69
2023/06/28 10:33:09;;;;;;;11.60;8.23;;;30.90;99.90;;;;;;5070821;28;20180;-69
2023/06/28 10:35:36;;;;;;;10.48;8.05;;;30.60;57.20;;;;;;5070339;28;20279;-69
2023/06/28 10:38:02;;;;;;;11.15;8.10;;;30.00;1.00;;;;;;5067093;28;20281;-71
2023/06/28 10:40:28;;;;;;;9.52;7.97;;;30.60;99.90;;;;;;5067824;28;20524;-71
2023/06/28 10:42:53;;;;;;;12.80;8.88;;;30.70;99.90;;;;;;5070579;28;20180;-71
2023/06/28 10:45:49;;;;;;;11.85;8.55;;;30.40;1.00;;;;;;5070938;28;20208;-71
2023/06/28 10:48:19;;;;;;;12.95;8.23;;;30.20;99.90;;;;;;4970791;28;20202;-72
2023/06/28 10:50:47;;;;;;;11.73;8.30;;;30.00;1.00;;;;;;4970354;28;20192;-72
2023/06/28 10:53:19;;;;;;;14.57;8.48;;;30.80;99.90;;;;;;4970901;28;20184;-70
2023/06/28 10:56:03;;;;;;;13.80;8.25;;;30.90;1.00;;;;;;4970636;28;20207;-71
2023/06/28 10:58:35;;;;;;;14.88;8.23;;;30.80;99.90;;;;;;4969368;28;20191;-71
2023/06/28 11:01:00;;;;;;;9.65;8.43;;;29.80;1.00;;;;;;4970344;28;20168;-70
2023/06/28 11:03:40;;;;;;;10.25;8.23;;;30.10;1.00;;;;;;4970209;28;20186;-69
2023/06/28 11:06:07;;;;;;;11.18;7.78;;;29.70;99.90;;;;;;4951138;28;20211;-70
2023/06/28 11:08:38;;;;;;;13.73;8.85;;;29.70;1.00;;;;;;4958598;28;20185;-69
2023/06/28 11:11:05;;;;;;;10.18;7.82;;;30.30;99.90;;;;;;4965279;28;20196;-70
2023/06/28 11:13:45;;;;;;;11.38;7.97;;;29.50;99.90;;;;;;4958171;28;20172;-69
2023/06/28 11:16:15;;;;;;;10.73;8.13;;;29.90;1.00;;;;;;4965862;28;20307;-71
2023/06/28 11:18:41;;;;;;;9.65;7.88;;;29.80;99.90;;;;;;4969350;28;20219;-71
2023/06/28 11:21:15;;;;;;;8.50;7.53;;;29.90;1.00;;;;;;4967437;28;20215;-71
2023/06/28 11:23:42;;;;;;;9.80;8.32;;;29.60;99.90;;;;;;4978169;28;20200;-71
2023/06/28 11:26:13;;;;;;;9.27;7.97;;;29.30;1.00;;;;;;5071879;28;20272;-71
2023/06/28 11:28:56;;;;;;;12.57;8.30;;;29.40;99.90;;;;;;5070603;28;20223;-71
2023/06/28 11:31:40;;;;;;;11.65;9.23;;;29.60;1.00;;;;;;5072385;28;20189;-71
2023/06/28 11:34:09;;;;;;;13.40;9.02;;;29.40;99.90;;;;;;5065577;28;20265;-72
2023/06/28 11:36:35;;;;;;;11.55;8.48;;;29.40;1.00;;;;;;5071622;28;20365;-71
2023/06/28 11:39:02;;;;;;;13.00;9.25;;;29.40;1.00;;;;;;5071091;28;20758;-71
2023/06/28 11:41:28;;;;;;;12.80;9.23;;;29.20;99.90;;;;;;5059470;28;20191;-68
2023/06/28 11:44:04;;;;;;;10.35;8.82;;;28.70;99.90;;;;;;5071574;28;20530;-69
2023/06/28 11:46:33;;;;;;;11.45;8.50;;;28.90;1.00;;;;;;5072280;28;20267;-69
2023/06/28 11:49:01;;;;;;;12.23;9.30;;;28.90;58.80;;;;;;5071080;28;20632;-69
2023/06/28 11:51:27;;;;;;;13.38;9.55;;;28.60;99.90;;;;;;5071737;28;20238;-68
2023/06/28 11:53:56;;;;;;;14.75;9.95;;;28.60;99.90;;;;;;5068672;28;20644;-70
2023/06/28 11:56:41;;;;;;;13.25;10.45;;;28.70;99.90;;;;;;5070838;28;20304;-71
2023/06/28 11:59:22;;;;;;;12.20;9.98;;;28.40;99.90;;;;;;5056592;28;20212;-68
2023/06/28 12:02:04;;;;;;;12.32;8.55;;;28.50;1.00;;;;;;5067629;28;20188;-70
2023/06/28 12:04:31;;;;;;;14.35;8.25;;;28.60;99.90;;;;;;5069813;28;20164;-68
2023/06/28 12:07:04;;;;;;;12.68;9.35;;;28.50;99.90;;;;;;5071977;28;20176;-68
2023/06/28 12:09:32;;;;;;;9.10;8.25;;;29.10;99.90;;;;;;5078469;28;20540;-70
2023/06/28 12:11:59;;;;;;;13.10;9.05;;;29.40;1.00;;;;;;5093474;28;20171;-70
2023/06/28 12:14:27;;;;;;;13.15;8.90;;;29.40;99.90;;;;;;5092603;28;20722;-69
2023/06/28 12:16:54;;;;;;;11.10;8.85;;;29.40;99.90;;;;;;5075518;28;20250;-69
2023/06/28 12:19:20;;;;;;;12.18;9.20;;;28.20;1.00;;;;;;5072220;28;20195;-71
2023/06/28 12:21:47;;;;;;;16.40;9.40;;;28.40;1.00;;;;;;5066378;28;20205;-71
2023/06/28 12:24:24;;;;;;;11.48;8.52;;;28.70;99.90;;;;;;5071121;28;20264;-72
2023/06/28 12:26:54;;;;;;;12.07;9.75;;;28.70;99.90;;;;;;5053100;28;20268;-71
2023/06/28 12:29:21;;;;;;;13.10;10.32;;;28.30;99.90;;;;;;5054377;28;20530;-69
2023/06/28 12:31:49;;;;;;;12.48;8.90;;;28.10;1.00;;;;;;5053908;28;20181;-71
2023/06/28 12:34:26;;;;;;;20.90;13.57;;;27.80;1.00;;;;;;5062544;28;20667;-70
2023/06/28 12:37:00;;;;;;;11.98;8.65;;;28.20;1.00;;;;;;5073294;28;20245;-70
2023/06/28 12:39:32;;;;;;;13.73;9.10;;;28.30;1.00;;;;;;5074245;28;20216;-70
2023/06/28 12:42:18;;;;;;;14.85;9.27;;;27.60;1.00;;;;;;5073688;28;20175;-71
2023/06/28 12:45:01;;;;;;;11.63;8.75;;;27.30;1.00;;;;;;5074477;28;20172;-70
2023/06/28 12:47:30;;;;;;;9.73;8.40;;;27.20;1.00;;;;;;5068491;28;20330;-71
2023/06/28 12:49:57;;;;;;;12.32;8.75;;;27.30;1.00;;;;;;5061353;28;20656;-72